Time;durP1;ratioP1;P1;durP2;ratioP2;P2;SDS_P1;SDS_P2;PMS_P1;PMS_P2;Temp;Humidity;BMP_temperature;BMP_pressure;BME280_temperature;BME280_humidity;BME280_pressure;Samples;Min_cycle;Max_cycle;Signal;HPM_P1;HPM_P2
2021/03/18 00:01:29;;;;;;;13.40;4.10;;;;;;;3.55;100.00;102222.25;4968228;28;20351;-57
2021/03/18 00:03:57;;;;;;;19.85;4.72;;;;;;;3.66;100.00;102220.81;4967166;28;20121;-57
2021/03/18 00:06:24;;;;;;;15.00;5.50;;;;;;;3.69;100.00;102225.94;4965326;28;20047;-56
2021/03/18 00:08:51;;;;;;;27.83;6.40;;;;;;;3.64;100.00;102220.06;4967873;28;20058;-57
2021/03/18 00:11:21;;;;;;;32.42;8.98;;;;;;;3.82;100.00;102216.41;4964997;28;20046;-57
2021/03/18 00:13:49;;;;;;;99.57;40.20;;;;;;;3.73;100.00;102209.84;4968766;28;20063;-56
2021/03/18 00:16:16;;;;;;;31.92;11.10;;;;;;;3.68;100.00;102211.88;4964426;28;20493;-56
2021/03/18 00:18:46;;;;;;;61.22;21.20;;;;;;;3.66;100.00;102202.31;4965720;28;20053;-56
2021/03/18 00:35:11;;;;;;;40.72;16.08;;;;;;;3.78;100.00;102191.06;4963179;28;20042;-57
2021/03/18 00:37:39;;;;;;;31.60;13.23;;;;;;;3.73;100.00;102187.84;4966254;28;20050;-55
2021/03/18 00:40:08;;;;;;;60.42;22.55;;;;;;;3.78;100.00;102191.94;4944454;28;20058;-57
2021/03/18 00:42:36;;;;;;;68.68;27.70;;;;;;;3.77;100.00;102189.34;4976301;28;20046;-57
2021/03/18 00:45:04;;;;;;;26.10;10.02;;;;;;;3.77;100.00;102187.59;4976277;28;20050;-55
2021/03/18 00:47:30;;;;;;;27.35;10.60;;;;;;;3.76;100.00;102185.88;4981889;28;20053;-57
2021/03/18 00:49:58;;;;;;;36.75;12.27;;;;;;;3.75;100.00;102173.59;4983163;28;20058;-57
2021/03/18 00:52:26;;;;;;;29.42;13.13;;;;;;;3.82;100.00;102170.63;4969316;28;20050;-57
2021/03/18 00:54:53;;;;;;;19.92;7.90;;;;;;;3.80;100.00;102170.72;4965913;28;20042;-57
2021/03/18 00:57:20;;;;;;;23.08;6.47;;;;;;;3.74;100.00;102178.97;4967028;28;20447;-58
2021/03/18 00:59:58;;;;;;;32.72;9.18;;;;;;;3.69;100.00;102176.59;4966320;28;20050;-57
2021/03/18 01:02:28;;;;;;;54.05;20.10;;;;;;;3.80;100.00;102173.34;4967552;28;20038;-57
2021/03/18 01:04:55;;;;;;;24.60;8.95;;;;;;;3.77;100.00;102179.66;4966133;28;20046;-57
2021/03/18 01:07:22;;;;;;;48.22;18.42;;;;;;;3.79;100.00;102164.56;4967857;28;20343;-58
2021/03/18 01:09:50;;;;;;;18.40;4.45;;;;;;;3.82;100.00;102160.06;4963698;28;20311;-57
2021/03/18 01:12:17;;;;;;;48.15;20.20;;;;;;;3.83;100.00;102164.38;4965893;28;20039;-56
2021/03/18 01:14:44;;;;;;;20.13;6.88;;;;;;;3.81;100.00;102158.34;4967110;28;20134;-56
2021/03/18 01:17:11;;;;;;;22.13;4.88;;;;;;;3.82;100.00;102152.97;4967623;28;20057;-56
2021/03/18 01:19:38;;;;;;;26.40;5.75;;;;;;;3.80;100.00;102152.22;4966138;28;20430;-59
2021/03/18 01:22:05;;;;;;;17.83;4.93;;;;;;;3.83;100.00;102149.41;4966741;28;20062;-59
2021/03/18 01:24:32;;;;;;;20.17;6.45;;;;;;;3.88;100.00;102151.78;4970370;28;20054;-59
2021/03/18 01:26:59;;;;;;;29.25;5.38;;;;;;;3.87;100.00;102163.28;4965961;28;20070;-59
2021/03/18 01:29:26;;;;;;;17.73;4.80;;;;;;;3.84;100.00;102151.09;4963882;28;20055;-59
2021/03/18 01:31:53;;;;;;;22.77;5.97;;;;;;;3.83;100.00;102148.53;4963891;28;20042;-59
2021/03/18 01:34:20;;;;;;;23.05;5.72;;;;;;;3.83;100.00;102137.94;4969931;28;20047;-59
2021/03/18 01:36:47;;;;;;;27.35;5.00;;;;;;;3.86;100.00;102148.38;4964463;28;20049;-59
2021/03/18 01:39:14;;;;;;;27.08;5.88;;;;;;;3.94;100.00;102151.41;4965759;28;20039;-59
2021/03/18 01:41:41;;;;;;;20.20;5.97;;;;;;;3.87;100.00;102143.00;4967506;28;20198;-59
2021/03/18 01:44:09;;;;;;;30.50;7.45;;;;;;;3.92;100.00;102140.09;4970120;28;22286;-59
2021/03/18 01:46:36;;;;;;;33.53;9.13;;;;;;;3.95;100.00;102139.91;4966591;28;20055;-58
2021/03/18 01:49:03;;;;;;;27.52;9.43;;;;;;;3.94;100.00;102143.47;4970316;28;20285;-59
2021/03/18 01:51:30;;;;;;;21.73;6.30;;;;;;;3.92;100.00;102142.72;4966599;28;20050;-59
2021/03/18 01:53:57;;;;;;;28.73;7.45;;;;;;;3.97;100.00;102145.97;4962781;28;20047;-59
2021/03/18 01:56:25;;;;;;;27.92;8.40;;;;;;;3.95;100.00;102150.47;4969032;28;20121;-59
2021/03/18 01:58:52;;;;;;;43.92;8.70;;;;;;;3.90;100.00;102160.47;4964418;28;20047;-59
2021/03/18 02:01:20;;;;;;;26.17;7.50;;;;;;;3.95;100.00;102166.34;4964386;28;20047;-59
2021/03/18 02:03:47;;;;;;;23.48;6.72;;;;;;;3.90;100.00;102165.78;4968797;28;20042;-59
2021/03/18 02:06:15;;;;;;;29.25;7.85;;;;;;;3.97;100.00;102167.97;4969083;28;20035;-59
2021/03/18 02:08:41;;;;;;;20.55;6.88;;;;;;;3.95;100.00;102167.22;4965321;28;20039;-59
2021/03/18 02:11:08;;;;;;;28.70;6.80;;;;;;;3.89;100.00;102169.34;4962071;28;20066;-60
2021/03/18 02:13:35;;;;;;;25.50;7.10;;;;;;;3.92;100.00;102161.22;4967252;28;20347;-60
2021/03/18 02:16:04;;;;;;;21.80;6.95;;;;;;;3.99;100.00;102165.22;4967912;28;20039;-63
2021/03/18 02:18:40;;;;;;;19.30;6.90;;;;;;;3.79;100.00;102172.50;4967045;28;20043;-59
2021/03/18 02:21:53;;;;;;;17.85;6.50;;;;;;;3.72;100.00;102175.56;4968700;28;20054;-60
2021/03/18 02:24:36;;;;;;;18.38;6.32;;;;;;;3.61;100.00;102182.31;4967436;28;20050;-60
2021/03/18 02:27:34;;;;;;;18.75;6.60;;;;;;;3.56;100.00;102179.06;4966167;28;20046;-59
2021/03/18 02:30:36;;;;;;;28.83;6.22;;;;;;;3.49;100.00;102174.16;4962720;28;20045;-60
2021/03/18 02:34:02;;;;;;;15.43;4.53;;;;;;;3.49;100.00;102171.53;4964780;28;20070;-60
2021/03/18 02:36:45;;;;;;;26.13;7.18;;;;;;;3.40;100.00;102155.28;4964918;28;20439;-60
2021/03/18 02:39:16;;;;;;;13.00;5.03;;;;;;;3.39;100.00;102148.28;4966431;28;20047;-60
2021/03/18 02:41:45;;;;;;;14.93;4.45;;;;;;;3.38;100.00;102161.56;4962342;28;20066;-60
2021/03/18 02:44:16;;;;;;;16.02;4.78;;;;;;;3.35;100.00;102149.38;4965298;28;20055;-60
2021/03/18 02:46:43;;;;;;;16.48;5.05;;;;;;;3.35;100.00;102144.09;4966574;28;20055;-59
2021/03/18 02:49:12;;;;;;;14.85;4.18;;;;;;;3.35;100.00;102137.97;4964750;28;20053;-59
2021/03/18 02:51:42;;;;;;;15.88;4.50;;;;;;;3.34;100.00;102133.63;4964302;28;20047;-60
2021/03/18 02:54:11;;;;;;;16.73;3.90;;;;;;;3.42;100.00;102137.53;4967742;28;20043;-60
2021/03/18 02:56:40;;;;;;;16.13;5.18;;;;;;;3.41;100.00;102124.44;4963838;28;20038;-60
2021/03/18 02:59:10;;;;;;;12.45;4.30;;;;;;;3.33;100.00;102127.50;4966452;28;20051;-60
2021/03/18 03:01:40;;;;;;;22.00;5.07;;;;;;;3.31;100.00;102113.50;4963085;28;20414;-60
2021/03/18 03:04:07;;;;;;;23.02;5.75;;;;;;;3.30;100.00;102111.81;4964738;28;20379;-60
2021/03/18 03:06:35;;;;;;;16.35;4.80;;;;;;;3.39;100.00;102121.03;4965738;28;20043;-60
2021/03/18 03:09:05;;;;;;;26.95;5.40;;;;;;;3.27;100.00;102122.53;4967035;28;20539;-60
2021/03/18 03:11:33;;;;;;;24.52;5.85;;;;;;;3.22;100.00;102125.44;4958413;28;20462;-60
2021/03/18 03:14:00;;;;;;;16.63;4.75;;;;;;;3.17;100.00;102131.91;4965276;28;20445;-60
2021/03/18 03:16:28;;;;;;;18.77;5.80;;;;;;;3.12;100.00;102123.38;4969402;28;20073;-60
2021/03/18 03:18:56;;;;;;;18.40;5.15;;;;;;;3.07;100.00;102121.81;4963883;28;20047;-60
2021/03/18 03:21:24;;;;;;;20.58;5.13;;;;;;;2.99;100.00;102117.88;4965044;28;20042;-60
2021/03/18 03:23:52;;;;;;;27.30;6.50;;;;;;;2.96;100.00;102118.06;4964918;28;20068;-60
2021/03/18 03:26:22;;;;;;;17.98;6.25;;;;;;;2.94;100.00;102110.22;4963485;28;20051;-60
2021/03/18 03:28:50;;;;;;;20.83;6.85;;;;;;;3.02;100.00;102117.72;4966668;28;20054;-60
2021/03/18 03:31:17;;;;;;;21.30;6.95;;;;;;;3.01;100.00;102108.97;4962034;28;20055;-60
2021/03/18 03:34:01;;;;;;;24.40;6.53;;;;;;;2.99;100.00;102094.13;4964909;28;20153;-60
2021/03/18 03:36:28;;;;;;;18.27;5.13;;;;;;;2.90;100.00;102092.84;4961578;28;20050;-60
2021/03/18 03:38:55;;;;;;;71.20;27.13;;;;;;;2.92;100.00;102096.25;4964966;28;20124;-60
2021/03/18 03:41:23;;;;;;;26.65;9.57;;;;;;;2.99;100.00;102102.94;4958600;28;20043;-60
2021/03/18 03:43:50;;;;;;;78.10;24.73;;;;;;;2.97;100.00;102102.13;4967159;28;20638;-60
2021/03/18 03:46:18;;;;;;;29.08;7.75;;;;;;;2.99;100.00;102102.94;4965872;28;20039;-60
2021/03/18 03:48:45;;;;;;;31.27;8.90;;;;;;;2.98;100.00;102103.84;4965046;28;20047;-60
2021/03/18 03:51:12;;;;;;;19.88;6.45;;;;;;;3.01;100.00;102111.59;4965108;28;20045;-60
2021/03/18 03:53:43;;;;;;;37.25;11.40;;;;;;;3.05;100.00;102109.66;4965696;28;20478;-60
2021/03/18 03:56:18;;;;;;;17.77;5.63;;;;;;;3.12;100.00;102103.13;4966794;28;20047;-60
2021/03/18 03:58:48;;;;;;;29.83;9.27;;;;;;;3.07;100.00;102110.41;4965567;28;20054;-60
2021/03/18 04:01:18;;;;;;;19.48;7.85;;;;;;;3.16;100.00;102103.78;4961814;28;20043;-60
2021/03/18 04:03:47;;;;;;;26.17;8.38;;;;;;;3.08;100.00;102098.94;4964565;28;20093;-59
2021/03/18 04:06:16;;;;;;;20.30;7.05;;;;;;;3.07;100.00;102098.06;4965225;28;20439;-60
2021/03/18 04:08:45;;;;;;;32.53;9.43;;;;;;;2.98;100.00;102092.44;4962948;28;20049;-60
2021/03/18 04:11:13;;;;;;;20.88;6.43;;;;;;;2.99;100.00;102095.00;4959781;28;20061;-60
2021/03/18 04:13:41;;;;;;;17.55;5.78;;;;;;;3.00;100.00;102091.41;4965521;28;20049;-60
2021/03/18 04:16:09;;;;;;;17.65;6.38;;;;;;;2.98;100.00;102093.28;4968490;28;20423;-60
2021/03/18 04:18:40;;;;;;;23.05;8.88;;;;;;;2.79;100.00;102082.00;4970055;28;20051;-60
2021/03/18 04:21:08;;;;;;;21.00;7.28;;;;;;;2.67;100.00;102080.88;4965323;28;20051;-60
2021/03/18 04:23:37;;;;;;;30.70;7.22;;;;;;;2.53;100.00;102086.88;4971269;28;20059;-60
2021/03/18 04:26:04;;;;;;;18.83;6.18;;;;;;;2.49;100.00;102093.25;4968792;28;20474;-60
2021/03/18 04:28:33;;;;;;;18.67;7.30;;;;;;;2.48;100.00;102088.88;4970636;28;20043;-61
2021/03/18 04:31:01;;;;;;;27.35;6.47;;;;;;;2.64;100.00;102092.44;4967627;28;20074;-60
2021/03/18 04:33:30;;;;;;;15.60;5.82;;;;;;;2.89;100.00;102097.28;4969235;28;20043;-60
2021/03/18 04:35:58;;;;;;;18.08;6.63;;;;;;;2.70;100.00;102107.09;4950431;28;20039;-60
2021/03/18 04:38:26;;;;;;;17.08;6.70;;;;;;;2.62;100.00;102109.28;4969384;28;20051;-60
2021/03/18 04:40:56;;;;;;;18.48;6.00;;;;;;;2.63;100.00;102111.84;4962893;28;20506;-60
2021/03/18 04:43:23;;;;;;;32.08;8.10;;;;;;;2.69;100.00;102110.66;4968722;28;20045;-60
2021/03/18 04:45:51;;;;;;;23.75;7.40;;;;;;;2.88;100.00;102113.19;4966391;28;20055;-60
2021/03/18 04:48:19;;;;;;;26.88;6.80;;;;;;;2.98;100.00;102111.78;4969767;28;20338;-60
2021/03/18 04:50:47;;;;;;;24.80;7.90;;;;;;;2.95;100.00;102106.66;4966844;28;20057;-60
2021/03/18 04:53:15;;;;;;;18.83;6.57;;;;;;;2.96;100.00;102112.78;4968179;28;20043;-60
2021/03/18 04:55:41;;;;;;;23.70;8.90;;;;;;;2.92;100.00;102112.94;4972107;28;20446;-60
2021/03/18 04:58:10;;;;;;;24.55;7.03;;;;;;;2.97;100.00;102106.56;4969064;28;20113;-60
2021/03/18 05:00:38;;;;;;;23.98;7.57;;;;;;;3.01;100.00;102105.47;4966129;28;20045;-60
2021/03/18 05:03:07;;;;;;;19.08;8.27;;;;;;;3.00;100.00;102096.69;4968540;28;20141;-60
2021/03/18 05:05:35;;;;;;;20.30;6.25;;;;;;;2.95;100.00;102095.22;4968964;28;20046;-60
2021/03/18 05:08:04;;;;;;;21.52;6.53;;;;;;;2.80;100.00;102081.09;4968902;28;20053;-60
2021/03/18 05:10:33;;;;;;;24.00;7.25;;;;;;;2.85;100.00;102079.91;4964752;28;20042;-61
2021/03/18 05:13:04;;;;;;;15.38;5.38;;;;;;;2.72;100.00;102069.16;4966017;28;20047;-60
2021/03/18 05:15:31;;;;;;;18.55;5.43;;;;;;;2.64;100.00;102073.97;4968933;28;20039;-60
2021/03/18 05:17:58;;;;;;;23.55;6.35;;;;;;;2.59;100.00;102070.72;4967553;28;20050;-60
2021/03/18 05:20:26;;;;;;;15.63;6.80;;;;;;;2.51;100.00;102072.91;4964578;28;20074;-60
2021/03/18 05:22:54;;;;;;;20.60;6.43;;;;;;;2.58;100.00;102077.78;4969936;28;20069;-60
2021/03/18 05:25:23;;;;;;;15.95;6.57;;;;;;;2.61;100.00;102082.06;4967195;28;20038;-60
2021/03/18 05:27:50;;;;;;;14.45;6.25;;;;;;;2.69;100.00;102073.72;4965983;28;20058;-60
2021/03/18 05:30:18;;;;;;;19.48;6.78;;;;;;;2.73;100.00;102072.63;4966878;28;20043;-60
2021/03/18 05:32:45;;;;;;;16.52;5.72;;;;;;;2.71;100.00;102071.88;4963862;28;20050;-60
2021/03/18 05:35:33;;;;;;;10.90;6.20;;;;;;;2.74;100.00;102064.63;4967231;28;20063;-60
2021/03/18 05:38:00;;;;;;;20.42;7.28;;;;;;;2.62;100.00;102072.34;4959347;28;20466;-60
2021/03/18 05:40:27;;;;;;;18.88;6.65;;;;;;;2.66;100.00;102069.47;4962737;28;20050;-60
2021/03/18 05:42:54;;;;;;;14.55;6.28;;;;;;;2.61;100.00;102070.63;4967149;28;20066;-60
2021/03/18 05:45:21;;;;;;;18.95;6.38;;;;;;;2.61;100.00;102060.97;4966388;28;20431;-60
2021/03/18 05:47:49;;;;;;;12.88;6.25;;;;;;;2.61;100.00;102057.44;4965426;28;20051;-60
2021/03/18 05:50:18;;;;;;;16.15;7.32;;;;;;;2.57;100.00;102062.06;4962745;28;20556;-60
2021/03/18 05:52:45;;;;;;;20.83;7.60;;;;;;;2.63;100.00;102064.34;4968014;28;20068;-60
2021/03/18 05:55:13;;;;;;;15.80;7.07;;;;;;;2.73;100.00;102065.56;4967376;28;20038;-60
2021/03/18 05:57:41;;;;;;;17.05;6.60;;;;;;;2.78;100.00;102065.34;4962316;28;20038;-60
2021/03/18 06:00:10;;;;;;;15.90;7.07;;;;;;;2.88;100.00;102063.06;4962258;28;20039;-60
2021/03/18 06:02:39;;;;;;;18.10;6.93;;;;;;;2.99;100.00;102055.44;4964137;28;20050;-60
2021/03/18 06:05:09;;;;;;;27.08;7.85;;;;;;;2.98;100.00;102059.00;4963058;28;20044;-60
2021/03/18 06:07:36;;;;;;;20.63;7.80;;;;;;;3.07;100.00;102061.09;4968947;28;20047;-60
2021/03/18 06:10:04;;;;;;;23.80;7.95;;;;;;;3.10;100.00;102053.06;4965164;28;20057;-60
2021/03/18 06:12:31;;;;;;;15.90;6.95;;;;;;;3.19;100.00;102056.09;4961064;28;20047;-60
2021/03/18 06:14:59;;;;;;;20.90;8.00;;;;;;;3.25;100.00;102050.50;4961990;28;20046;-60
2021/03/18 06:17:31;;;;;;;17.63;7.70;;;;;;;3.42;100.00;102050.38;4962392;28;20050;-57
2021/03/18 06:19:59;;;;;;;27.58;9.30;;;;;;;3.29;100.00;102046.75;4962918;28;20363;-58
2021/03/18 06:22:33;;;;;;;28.83;9.52;;;;;;;3.32;100.00;102043.94;4964105;28;20062;-58
2021/03/18 06:25:00;;;;;;;22.40;7.95;;;;;;;3.49;100.00;102042.97;4964979;28;20082;-58
2021/03/18 06:27:27;;;;;;;25.55;9.23;;;;;;;3.59;100.00;102045.97;4968017;28;20053;-58
2021/03/18 06:29:56;;;;;;;21.55;8.05;;;;;;;3.64;100.00;102050.97;4963389;28;20050;-58
2021/03/18 06:32:24;;;;;;;23.13;8.40;;;;;;;3.60;100.00;102045.00;4965668;28;20442;-57
2021/03/18 06:34:53;;;;;;;18.70;8.43;;;;;;;3.52;100.00;102039.31;4965915;28;20466;-57
2021/03/18 06:37:36;;;;;;;24.13;8.50;;;;;;;3.35;100.00;102037.63;4962495;28;20047;-58
2021/03/18 06:40:27;;;;;;;21.05;9.55;;;;;;;3.53;100.00;102056.84;4959326;28;20130;-58
2021/03/18 06:42:56;;;;;;;22.05;7.93;;;;;;;3.55;100.00;102047.91;4960089;28;20173;-56
2021/03/18 06:45:30;;;;;;;19.00;7.68;;;;;;;3.69;100.00;102048.94;4965338;28;20305;-58
2021/03/18 06:48:01;;;;;;;21.48;7.95;;;;;;;3.68;100.00;102042.78;4963154;28;20117;-58
2021/03/18 06:50:32;;;;;;;25.63;8.85;;;;;;;3.62;100.00;102041.34;4962442;28;20336;-57
2021/03/18 06:52:59;;;;;;;22.23;8.70;;;;;;;3.71;100.00;102039.09;4964554;28;20042;-58
2021/03/18 06:55:28;;;;;;;24.00;7.25;;;;;;;3.76;100.00;102032.63;4968414;28;20035;-58
2021/03/18 06:58:18;;;;;;;20.20;7.47;;;;;;;3.78;100.00;102030.75;4966326;28;20054;-57
2021/03/18 07:00:47;;;;;;;19.88;9.60;;;;;;;3.93;100.00;102029.00;4964386;28;20050;-57
2021/03/18 07:03:25;;;;;;;20.88;10.57;;;;;;;3.92;100.00;102029.06;4969977;28;20069;-57
2021/03/18 07:05:53;;;;;;;16.95;8.23;;;;;;;3.81;100.00;102013.84;4966500;28;20063;-57
2021/03/18 07:08:28;;;;;;;17.35;7.22;;;;;;;3.81;100.00;102026.22;4965375;28;20450;-60
2021/03/18 07:10:55;;;;;;;;;;;;;;;3.91;100.00;102027.38;4956196;28;20062;-60
2021/03/18 07:13:24;;;;;;;14.40;7.95;;;;;;;3.96;100.00;102026.16;4962194;28;19922;-60
2021/03/18 07:15:52;;;;;;;18.13;8.60;;;;;;;3.77;100.00;102033.44;4961278;28;20043;-60
2021/03/18 07:18:19;;;;;;;18.67;8.93;;;;;;;3.54;100.00;102034.78;4962853;28;20047;-60
2021/03/18 07:21:02;;;;;;;33.22;10.48;;;;;;;3.78;100.00;102024.59;4963028;28;20363;-60
2021/03/18 07:23:37;;;;;;;28.65;11.93;;;;;;;3.67;100.00;102022.59;4965359;28;20054;-60
2021/03/18 07:26:13;;;;;;;29.10;12.68;;;;;;;3.83;100.00;102026.97;4959067;28;20368;-60
2021/03/18 07:28:41;;;;;;;28.10;10.60;;;;;;;4.05;100.00;102008.91;4962178;28;20340;-60
2021/03/18 07:31:07;;;;;;;32.42;10.95;;;;;;;4.19;100.00;102009.88;4958380;28;20061;-60
2021/03/18 07:33:35;;;;;;;26.45;8.90;;;;;;;4.18;100.00;102008.16;4964618;28;20394;-60
2021/03/18 07:36:04;;;;;;;30.23;11.00;;;;;;;3.90;100.00;102009.84;4961093;28;20043;-60
2021/03/18 07:38:31;;;;;;;24.88;8.80;;;;;;;4.12;100.00;102012.88;4963336;28;20050;-59
2021/03/18 07:41:00;;;;;;;20.88;8.38;;;;;;;4.28;100.00;101998.72;4961207;28;20450;-60
2021/03/18 07:43:28;;;;;;;22.27;7.63;;;;;;;4.37;100.00;102003.47;4962443;28;20043;-60
2021/03/18 07:45:56;;;;;;;27.63;9.15;;;;;;;4.30;100.00;102007.44;4964822;28;20046;-60
2021/03/18 07:48:24;;;;;;;25.23;7.57;;;;;;;4.18;100.00;102018.75;4963934;28;20101;-59
2021/03/18 07:50:51;;;;;;;25.70;8.13;;;;;;;4.41;100.00;102009.41;4955534;28;20046;-59
2021/03/18 07:53:20;;;;;;;71.10;33.33;;;;;;;3.92;100.00;102002.66;4961908;28;20046;-59
2021/03/18 07:55:48;;;;;;;43.58;17.60;;;;;;;3.78;100.00;102001.69;4967817;28;20343;-59
2021/03/18 07:58:38;;;;;;;89.55;45.35;;;;;;;3.98;100.00;101991.69;4946810;28;20045;-59
2021/03/18 08:01:06;;;;;;;56.38;23.90;;;;;;;4.21;100.00;101990.34;4960697;28;20054;-59
2021/03/18 08:03:33;;;;;;;19.42;6.45;;;;;;;4.40;100.00;101976.81;4967587;28;20118;-59
2021/03/18 08:06:01;;;;;;;20.45;5.55;;;;;;;4.49;100.00;101975.41;4964364;28;20055;-59
2021/03/18 08:08:41;;;;;;;19.15;6.70;;;;;;;4.61;100.00;101968.53;4965769;28;20048;-59
2021/03/18 08:11:10;;;;;;;17.25;5.25;;;;;;;4.59;100.00;101975.69;4959438;28;20043;-60
2021/03/18 08:13:39;;;;;;;45.63;24.50;;;;;;;4.26;100.00;101979.47;4967274;28;20144;-59
2021/03/18 08:16:09;;;;;;;27.33;7.75;;;;;;;4.43;100.00;101963.41;4965376;28;20035;-60
2021/03/18 08:18:41;;;;;;;20.50;7.15;;;;;;;4.58;100.00;101961.63;4968037;28;20046;-60
2021/03/18 08:21:10;;;;;;;15.90;5.45;;;;;;;4.68;100.00;101961.91;4963610;28;20074;-59
2021/03/18 08:23:42;;;;;;;20.63;6.32;;;;;;;4.82;100.00;101953.94;4963314;28;20596;-60
2021/03/18 08:26:12;;;;;;;15.98;5.45;;;;;;;4.64;100.00;101952.44;4959045;28;20053;-60
2021/03/18 08:28:41;;;;;;;25.90;8.32;;;;;;;4.32;100.00;101950.00;4963411;28;20057;-60
2021/03/18 08:31:10;;;;;;;21.85;7.40;;;;;;;4.48;100.00;101945.47;4961687;28;20046;-60
2021/03/18 08:33:39;;;;;;;14.18;4.72;;;;;;;4.48;100.00;101947.28;4965974;28;20463;-60
2021/03/18 08:36:21;;;;;;;13.82;5.25;;;;;;;4.64;100.00;101947.16;4962538;28;20513;-60
2021/03/18 08:38:50;;;;;;;14.98;6.60;;;;;;;4.43;100.00;101944.06;4963775;28;20051;-59
2021/03/18 08:41:35;;;;;;;20.10;6.80;;;;;;;4.34;100.00;101944.59;4956553;28;20049;-59
2021/03/18 08:44:19;;;;;;;19.73;4.60;;;;;;;4.89;100.00;101938.50;4964419;28;20055;-59
2021/03/18 08:46:52;;;;;;;17.17;4.93;;;;;;;5.00;100.00;101951.91;4959807;28;20434;-60
2021/03/18 08:49:28;;;;;;;22.77;5.45;;;;;;;4.52;100.00;101947.91;4960412;28;20047;-60
2021/03/18 08:51:58;;;;;;;20.77;6.72;;;;;;;4.75;100.00;101951.75;4959083;28;20406;-55
2021/03/18 08:54:52;;;;;;;15.70;5.13;;;;;;;4.88;100.00;101965.09;4964328;28;20049;-57
2021/03/18 08:57:37;;;;;;;17.05;6.88;;;;;;;4.44;100.00;101957.19;4961662;28;20035;-57
2021/03/18 09:00:15;;;;;;;16.98;4.85;;;;;;;4.19;100.00;101960.47;4962068;28;20462;-57
2021/03/18 09:02:45;;;;;;;20.15;5.15;;;;;;;4.74;100.00;101955.38;4967504;28;20125;-58
2021/03/18 09:05:15;;;;;;;18.05;5.43;;;;;;;4.79;100.00;101946.19;4969553;28;20070;-59
2021/03/18 09:07:48;;;;;;;18.85;7.35;;;;;;;4.81;100.00;101944.28;4969477;28;20039;-59
2021/03/18 09:10:18;;;;;;;16.63;7.50;;;;;;;4.71;100.00;101950.28;4963472;28;20339;-59
2021/03/18 09:12:48;;;;;;;15.13;6.70;;;;;;;4.91;100.00;101949.00;4961595;28;20045;-59
2021/03/18 09:15:18;;;;;;;22.10;8.18;;;;;;;4.81;100.00;101954.88;4966220;28;20051;-59
2021/03/18 09:17:48;;;;;;;24.55;8.50;;;;;;;4.76;100.00;101959.63;4964961;28;20039;-59
2021/03/18 09:20:17;;;;;;;28.77;9.38;;;;;;;4.96;100.00;101973.34;4959160;28;20042;-59
2021/03/18 09:22:46;;;;;;;24.17;8.35;;;;;;;4.90;100.00;101968.47;4966285;28;20360;-59
2021/03/18 09:25:13;;;;;;;24.02;9.07;;;;;;;4.57;100.00;101975.78;4965618;28;20680;-58
2021/03/18 09:27:44;;;;;;;27.42;9.90;;;;;;;4.59;100.00;101965.09;4963513;28;20050;-59
2021/03/18 09:30:22;;;;;;;24.00;8.23;;;;;;;4.76;100.00;101972.84;4962641;28;20046;-59
2021/03/18 09:32:50;;;;;;;21.67;8.85;;;;;;;4.94;100.00;101973.47;4963260;28;20043;-59
2021/03/18 09:35:18;;;;;;;21.15;8.77;;;;;;;5.00;100.00;101977.50;4966211;28;20138;-59
2021/03/18 09:37:56;;;;;;;22.25;9.55;;;;;;;4.50;100.00;101976.28;4966332;28;20051;-59
2021/03/18 09:40:33;;;;;;;19.15;7.45;;;;;;;4.78;100.00;101973.59;4964425;28;20046;-59
2021/03/18 09:43:03;;;;;;;21.05;8.00;;;;;;;4.74;100.00;101977.38;4964296;28;20057;-59
2021/03/18 09:45:30;;;;;;;19.70;10.35;;;;;;;4.81;100.00;101975.19;4969813;28;20038;-59
2021/03/18 09:47:57;;;;;;;18.92;6.43;;;;;;;4.71;100.00;101980.22;4967213;28;20050;-59
2021/03/18 09:50:26;;;;;;;17.30;7.35;;;;;;;4.79;100.00;101977.94;4965727;28;20066;-60
2021/03/18 09:53:06;;;;;;;16.35;6.43;;;;;;;5.03;100.00;101973.81;4959898;28;20351;-59
2021/03/18 09:55:33;;;;;;;14.73;6.15;;;;;;;4.79;100.00;101964.72;4965012;28;20038;-59
2021/03/18 09:58:11;;;;;;;16.17;6.18;;;;;;;5.12;100.00;101963.50;4962654;28;20051;-59
2021/03/18 10:00:38;;;;;;;13.48;5.35;;;;;;;5.00;100.00;101961.63;4962591;28;21014;-59
2021/03/18 10:03:06;;;;;;;12.93;5.40;;;;;;;5.47;100.00;101962.97;4963687;28;20050;-60
2021/03/18 10:05:33;;;;;;;12.35;4.65;;;;;;;5.99;100.00;101948.03;4963140;28;20046;-60
2021/03/18 10:08:01;;;;;;;10.25;5.18;;;;;;;5.54;100.00;101949.31;4964824;28;20601;-60
2021/03/18 10:10:31;;;;;;;11.43;4.93;;;;;;;6.07;100.00;101942.22;4959315;28;20043;-60
2021/03/18 10:13:01;;;;;;;9.93;5.53;;;;;;;6.43;100.00;101940.56;4963193;28;20110;-60
2021/03/18 10:15:29;;;;;;;8.70;3.85;;;;;;;6.58;100.00;101930.69;4966382;28;20038;-59
2021/03/18 10:17:57;;;;;;;9.48;4.72;;;;;;;6.64;100.00;101929.41;4964927;28;20157;-58
2021/03/18 10:20:26;;;;;;;6.90;4.07;;;;;;;5.84;100.00;101923.41;4965917;28;20051;-59
2021/03/18 10:23:01;;;;;;;17.52;5.22;;;;;;;5.16;100.00;101927.06;4960372;28;20042;-58
2021/03/18 10:25:29;;;;;;;17.65;7.75;;;;;;;5.11;100.00;101918.56;4963632;28;20047;-58
2021/03/18 10:28:02;;;;;;;13.65;5.03;;;;;;;5.04;100.00;101918.13;4960487;28;20494;-58
2021/03/18 10:30:31;;;;;;;15.25;6.32;;;;;;;5.31;100.00;101920.75;4963590;28;20043;-58
2021/03/18 10:33:05;;;;;;;14.80;6.05;;;;;;;5.55;100.00;101916.56;4962632;28;20051;-58
2021/03/18 10:35:34;;;;;;;12.40;6.20;;;;;;;5.40;100.00;101924.59;4955812;28;20346;-58
2021/03/18 10:38:02;;;;;;;14.38;7.25;;;;;;;5.34;100.00;101923.22;4966876;28;20281;-58
2021/03/18 10:40:31;;;;;;;13.35;6.07;;;;;;;5.40;100.00;101923.75;4958567;28;20054;-58
2021/03/18 10:42:59;;;;;;;20.33;7.70;;;;;;;4.95;100.00;101929.31;4961753;28;20047;-58
2021/03/18 10:45:28;;;;;;;12.27;5.18;;;;;;;5.23;100.00;101922.22;4964989;28;20698;-60
2021/03/18 10:47:59;;;;;;;13.05;5.72;;;;;;;5.42;100.00;101917.38;4961219;28;20061;-61
2021/03/18 10:50:29;;;;;;;10.77;3.88;;;;;;;5.86;100.00;101918.81;4959911;28;20447;-58
2021/03/18 10:52:59;;;;;;;8.98;3.83;;;;;;;5.91;100.00;101918.53;4959656;28;20046;-58
2021/03/18 10:55:29;;;;;;;10.45;4.35;;;;;;;5.48;100.00;101914.31;4967549;28;20534;-57
2021/03/18 10:58:04;;;;;;;6.28;3.08;;;;;;;5.42;100.00;101914.75;4962445;28;20438;-58
2021/03/18 11:00:33;;;;;;;7.57;3.53;;;;;;;5.31;100.00;101922.56;4961101;28;20070;-60
2021/03/18 11:03:07;;;;;;;5.68;3.42;;;;;;;5.90;100.00;101914.16;4965281;28;20072;-57
2021/03/18 11:05:40;;;;;;;6.70;3.10;;;;;;;5.92;100.00;101922.00;4964284;28;20395;-57
2021/03/18 11:08:09;;;;;;;5.82;3.00;;;;;;;5.51;100.00;101922.09;4964304;28;20106;-60
2021/03/18 11:10:38;;;;;;;8.80;5.38;;;;;;;6.21;100.00;101920.03;4962111;28;20050;-58
2021/03/18 11:13:07;;;;;;;10.50;3.80;;;;;;;5.88;100.00;101916.06;4960775;28;20042;-57
2021/03/18 11:15:45;;;;;;;8.13;5.15;;;;;;;6.41;100.00;101921.28;4960228;28;20053;-58
2021/03/18 11:18:13;;;;;;;7.90;4.65;;;;;;;6.02;100.00;101912.50;4963033;28;20415;-58
2021/03/18 11:20:42;;;;;;;6.75;4.22;;;;;;;5.81;100.00;101906.84;4961048;28;20117;-58
2021/03/18 11:23:11;;;;;;;7.45;3.63;;;;;;;5.76;100.00;101909.81;4964207;28;20063;-60
2021/03/18 11:25:38;;;;;;;4.60;3.35;;;;;;;6.24;100.00;101913.63;4960829;28;20039;-58
2021/03/18 11:28:05;;;;;;;6.00;3.75;;;;;;;6.09;100.00;101905.81;4963983;28;20035;-60
2021/03/18 11:30:35;;;;;;;6.72;4.10;;;;;;;5.97;100.00;101904.00;4961989;28;20109;-57
2021/03/18 11:33:10;;;;;;;5.68;3.10;;;;;;;5.54;100.00;101898.97;4961332;28;20051;-57
2021/03/18 11:35:38;;;;;;;10.65;3.50;;;;;;;5.16;100.00;101890.84;4964599;28;20055;-58
2021/03/18 11:38:05;;;;;;;9.80;3.28;;;;;;;5.60;100.00;101886.16;4966445;28;20394;-58
2021/03/18 11:40:35;;;;;;;7.53;3.88;;;;;;;5.34;100.00;101895.84;4963256;28;20179;-58
2021/03/18 11:43:04;;;;;;;9.90;3.47;;;;;;;5.56;100.00;101886.44;4964454;28;20074;-57
2021/03/18 11:45:35;;;;;;;12.02;4.95;;;;;;;5.28;100.00;101878.56;4966245;28;20050;-58